createdAt,value
2018-11-29T00:01:59.813Z,81.67
2018-11-29T00:04:47.678Z,81.71
2018-11-29T00:07:35.961Z,80.61
2018-11-29T00:13:29.617Z,81.40
2018-11-29T00:16:17.924Z,81.63
2018-11-29T00:19:08.682Z,81.83
2018-11-29T00:21:57.924Z,82.17
2018-11-29T00:24:45.159Z,82.37
2018-11-29T00:27:32.826Z,82.43
2018-11-29T00:30:20.638Z,82.42
2018-11-29T00:33:08.244Z,82.40
2018-11-29T00:35:55.561Z,81.25
2018-11-29T00:38:42.917Z,81.58
2018-11-29T00:41:31.137Z,81.79
2018-11-29T00:44:18.624Z,82.04
2018-11-29T00:47:06.762Z,81.06
2018-11-29T00:49:54.245Z,81.67
2018-11-29T00:52:41.460Z,82.12
2018-11-29T00:55:28.916Z,82.43
2018-11-29T01:01:22.952Z,82.85
2018-11-29T01:04:10.417Z,83.01
2018-11-29T01:06:57.543Z,83.20
2018-11-29T01:09:47.524Z,83.25
2018-11-29T01:12:34.739Z,82.00
2018-11-29T01:15:22.331Z,82.44
2018-11-29T01:18:09.710Z,82.73
2018-11-29T01:20:57.073Z,82.86
2018-11-29T01:23:46.132Z,83.01
2018-11-29T01:26:33.757Z,83.08
2018-11-29T01:29:21.158Z,81.86
2018-11-29T01:32:08.868Z,82.39
2018-11-29T01:34:57.059Z,82.68
2018-11-29T01:37:44.023Z,82.80
2018-11-29T01:40:31.587Z,82.78
2018-11-29T01:43:18.973Z,82.77
2018-11-29T01:46:08.985Z,81.56
2018-11-29T01:48:56.613Z,80.54
2018-11-29T01:51:44.955Z,80.97
2018-11-29T01:54:32.284Z,81.17
2018-11-29T01:57:19.608Z,81.34
2018-11-29T02:00:06.884Z,81.50
2018-11-29T02:02:55.639Z,81.62
2018-11-29T02:05:42.047Z,81.71
2018-11-29T02:08:29.883Z,81.80
2018-11-29T02:14:31.531Z,81.10
2018-11-29T02:17:18.771Z,81.32
2018-11-29T02:20:06.200Z,81.41
2018-11-29T02:22:53.258Z,81.57
2018-11-29T02:25:40.853Z,81.74
2018-11-29T02:28:30.071Z,81.91
2018-11-29T02:31:17.486Z,82.10
2018-11-29T02:34:04.945Z,82.21
2018-11-29T02:36:52.066Z,82.37
2018-11-29T02:39:39.691Z,82.54
2018-11-29T02:42:29.568Z,82.66
2018-11-29T02:45:17.060Z,82.69
2018-11-29T02:48:04.255Z,82.70
2018-11-29T02:50:52.558Z,82.73
2018-11-29T02:53:55.612Z,82.76
2018-11-29T02:56:42.976Z,82.78
2018-11-29T02:59:30.616Z,82.83
2018-11-29T03:02:18.051Z,82.85
2018-11-29T03:05:05.438Z,82.79
2018-11-29T03:07:52.751Z,82.69
2018-11-29T03:10:40.168Z,82.61
2018-11-29T03:13:27.233Z,81.41
2018-11-29T03:16:17.123Z,81.67
2018-11-29T03:19:04.340Z,81.79
2018-11-29T03:21:52.016Z,81.83
2018-11-29T03:27:45.851Z,81.00
2018-11-29T03:30:33.166Z,81.19
2018-11-29T03:33:20.638Z,81.39
2018-11-29T03:36:07.991Z,81.58
2018-11-29T03:38:55.361Z,81.73
2018-11-29T03:41:42.898Z,81.79
2018-11-29T03:44:30.426Z,81.86
2018-11-29T03:47:18.225Z,81.71
2018-11-29T03:50:05.552Z,80.36
2018-11-29T03:52:53.156Z,80.45
2018-11-29T03:55:56.135Z,80.63
2018-11-29T03:58:59.629Z,80.48
2018-11-29T04:01:47.091Z,80.27
2018-11-29T04:04:34.340Z,80.21
2018-11-29T04:07:21.539Z,80.10
2018-11-29T04:10:24.152Z,78.75
2018-11-29T04:13:11.040Z,78.75
2018-11-29T04:16:13.849Z,78.59
2018-11-29T04:19:01.203Z,78.52
2018-11-29T04:21:48.488Z,78.29
2018-11-29T04:24:36.001Z,78.01
2018-11-29T04:27:23.532Z,77.85
2018-11-29T04:30:11.564Z,77.50
2018-11-29T04:32:58.983Z,77.13
2018-11-29T04:35:46.205Z,77.19
2018-11-29T04:38:33.609Z,77.07
2018-11-29T04:41:21.072Z,77.02
2018-11-29T04:44:08.488Z,76.76
2018-11-29T04:46:55.936Z,76.60
2018-11-29T04:49:43.452Z,76.38
2018-11-29T04:52:38.713Z,74.87
2018-11-29T04:55:26.362Z,75.01
2018-11-29T04:58:13.714Z,73.88
2018-11-29T05:01:01.186Z,74.03
2018-11-29T05:03:48.444Z,72.88
2018-11-29T05:06:35.926Z,73.15
2018-11-29T05:09:23.633Z,73.37
2018-11-29T05:12:10.900Z,73.77
2018-11-29T05:14:58.293Z,73.98
2018-11-29T05:17:45.715Z,74.07
2018-11-29T05:20:32.827Z,74.18
2018-11-29T05:23:21.045Z,72.74
2018-11-29T05:26:08.430Z,71.39
2018-11-29T05:28:56.198Z,71.89
2018-11-29T05:31:43.829Z,72.43
2018-11-29T05:34:32.146Z,72.87
2018-11-29T05:37:19.656Z,72.83
2018-11-29T05:40:07.151Z,72.96
2018-11-29T05:42:56.356Z,73.04
2018-11-29T05:45:42.114Z,73.22
2018-11-29T05:48:29.663Z,73.08
2018-11-29T05:51:17.244Z,73.29
2018-11-29T05:54:04.767Z,73.32
2018-11-29T05:56:52.153Z,73.45
2018-11-29T05:59:39.628Z,73.54
2018-11-29T06:02:26.915Z,73.55
2018-11-29T06:05:14.132Z,73.66
2018-11-29T06:08:01.494Z,73.69
2018-11-29T06:14:03.061Z,73.37
2018-11-29T06:16:52.613Z,73.56
2018-11-29T06:19:39.982Z,73.50
2018-11-29T06:22:27.185Z,73.57
2018-11-29T06:25:14.271Z,73.37
2018-11-29T06:28:01.376Z,73.58
2018-11-29T06:30:48.368Z,73.42
2018-11-29T06:33:35.893Z,72.62
2018-11-29T06:36:23.543Z,72.94
2018-11-29T06:39:10.773Z,72.82
2018-11-29T06:42:00.786Z,72.82
2018-11-29T06:44:48.507Z,72.71
2018-11-29T06:47:35.979Z,72.26
2018-11-29T06:50:23.030Z,72.30
2018-11-29T06:53:10.960Z,72.21
2018-11-29T06:56:00.563Z,71.65
2018-11-29T06:58:48.010Z,71.32
2018-11-29T07:01:35.807Z,71.28
2018-11-29T07:04:25.202Z,71.65
2018-11-29T07:07:12.763Z,71.40
2018-11-29T07:10:00.389Z,71.44
2018-11-29T07:12:50.145Z,71.28
2018-11-29T07:15:38.109Z,71.14
2018-11-29T07:18:25.760Z,70.57
2018-11-29T07:21:40.810Z,70.69
2018-11-29T07:24:30.005Z,70.39
2018-11-29T07:27:17.607Z,70.45
2018-11-29T07:30:05.194Z,70.54
2018-11-29T07:32:52.564Z,70.31
2018-11-29T07:35:42.659Z,69.96
2018-11-29T07:38:30.165Z,68.80
2018-11-29T07:41:19.815Z,68.68
2018-11-29T07:44:07.093Z,69.23
2018-11-29T07:46:54.443Z,68.90
2018-11-29T07:49:49.755Z,68.76
2018-11-29T07:52:37.342Z,68.77
2018-11-29T07:58:31.133Z,68.52
2018-11-29T08:01:18.551Z,68.49
2018-11-29T08:07:14.035Z,68.25
2018-11-29T08:13:08.026Z,67.35
2018-11-29T08:16:03.177Z,65.57
2018-11-29T08:18:50.554Z,65.67
2018-11-29T08:21:39.917Z,66.13
2018-11-29T08:24:28.931Z,66.33
2018-11-29T08:30:22.106Z,66.33
2018-11-29T08:36:17.001Z,65.70
2018-11-29T08:39:06.994Z,63.32
2018-11-29T08:41:54.588Z,61.31
2018-11-29T08:44:42.723Z,62.83
2018-11-29T08:50:53.043Z,63.49
2018-11-29T08:53:41.048Z,63.81
2018-11-29T08:56:28.271Z,63.79
2018-11-29T08:59:17.326Z,64.03
2018-11-29T09:02:04.354Z,64.00
2018-11-29T09:04:51.813Z,63.84
2018-11-29T09:07:40.113Z,63.63
2018-11-29T09:10:39.502Z,63.74
2018-11-29T09:13:32.623Z,63.70
2018-11-29T09:19:29.064Z,61.71
2018-11-29T09:22:20.887Z,62.11
2018-11-29T09:25:08.390Z,58.94
2018-11-29T09:28:13.114Z,57.33
2018-11-29T09:31:02.331Z,59.39
2018-11-29T09:33:50.766Z,60.27
2018-11-29T09:36:46.537Z,57.85
2018-11-29T09:39:34.166Z,58.70
2018-11-29T09:42:29.318Z,59.04
2018-11-29T09:45:16.716Z,56.15
2018-11-29T09:48:07.025Z,57.09
2018-11-29T09:50:55.062Z,58.29
2018-11-29T09:54:04.678Z,58.07
2018-11-29T09:56:52.619Z,58.89
2018-11-29T09:59:40.587Z,55.22
2018-11-29T10:02:41.293Z,55.83
2018-11-29T10:05:31.316Z,57.25
2018-11-29T10:08:18.909Z,57.23
2018-11-29T10:11:06.644Z,57.45
2018-11-29T10:13:54.293Z,58.16
2018-11-29T10:16:43.446Z,58.22
2018-11-29T10:19:31.356Z,58.27
2018-11-29T10:22:18.838Z,58.41
2018-11-29T10:25:06.334Z,58.53
2018-11-29T10:27:53.971Z,57.66
2018-11-29T10:30:41.570Z,57.49
2018-11-29T10:33:34.544Z,57.50
2018-11-29T10:36:21.952Z,57.21
2018-11-29T10:39:13.568Z,52.75
2018-11-29T10:42:01.290Z,51.26
2018-11-29T10:44:48.385Z,52.87
2018-11-29T10:47:36.616Z,53.48
2018-11-29T10:53:36.381Z,54.79
2018-11-29T10:56:22.868Z,55.40
2018-11-29T10:59:10.365Z,54.31
2018-11-29T11:01:57.918Z,54.80
2018-11-29T11:04:44.999Z,55.16
2018-11-29T11:07:32.729Z,55.38
2018-11-29T11:10:20.772Z,55.22
2018-11-29T11:13:08.496Z,54.12
2018-11-29T11:15:56.562Z,54.76
2018-11-29T11:18:44.106Z,51.18
2018-11-29T11:21:40.122Z,52.61
2018-11-29T11:24:28.323Z,53.09
2018-11-29T11:27:15.645Z,52.65
2018-11-29T11:30:03.011Z,52.91
2018-11-29T11:32:51.161Z,49.78
2018-11-29T11:35:38.638Z,50.57
2018-11-29T11:38:27.812Z,51.31
2018-11-29T11:41:15.563Z,48.20
2018-11-29T11:44:02.749Z,50.04
2018-11-29T11:46:50.589Z,50.79
2018-11-29T11:49:38.650Z,51.98
2018-11-29T11:52:27.929Z,51.76
2018-11-29T11:55:18.947Z,51.77
2018-11-29T11:58:03.300Z,52.02
2018-11-29T12:00:52.648Z,52.07
2018-11-29T12:03:40.805Z,52.15
2018-11-29T12:06:28.198Z,52.06
2018-11-29T12:09:16.564Z,51.50
2018-11-29T12:12:07.041Z,52.55
2018-11-29T12:14:54.428Z,51.88
2018-11-29T12:17:42.208Z,51.43
2018-11-29T12:20:30.560Z,51.37
2018-11-29T12:23:19.559Z,47.82
2018-11-29T12:26:17.361Z,48.92
2018-11-29T12:29:06.317Z,45.62
2018-11-29T12:31:53.192Z,47.43
2018-11-29T12:34:40.770Z,48.59
2018-11-29T12:37:28.393Z,45.27
2018-11-29T12:40:17.753Z,47.08
2018-11-29T12:43:06.097Z,44.90
2018-11-29T12:45:54.578Z,47.36
2018-11-29T12:51:48.641Z,48.94
2018-11-29T12:54:36.381Z,46.42
2018-11-29T12:57:23.608Z,47.99
2018-11-29T13:00:11.916Z,49.33
2018-11-29T13:03:00.400Z,49.59
2018-11-29T13:05:47.839Z,46.92
2018-11-29T13:11:47.557Z,48.48
2018-11-29T13:14:35.394Z,49.51
2018-11-29T13:17:23.765Z,49.72
2018-11-29T13:20:11.193Z,46.08
2018-11-29T13:22:58.609Z,47.74
2018-11-29T13:25:46.321Z,48.29
2018-11-29T13:28:34.990Z,49.00
2018-11-29T13:31:21.877Z,48.89
2018-11-29T13:34:10.114Z,49.02
2018-11-29T13:36:57.427Z,45.83
2018-11-29T13:39:44.589Z,47.83
2018-11-29T13:42:32.895Z,49.03
2018-11-29T13:45:21.542Z,47.66
2018-11-29T13:48:10.735Z,47.69
2018-11-29T13:54:04.509Z,47.61
2018-11-29T13:56:52.017Z,50.20
2018-11-29T13:59:40.235Z,51.08
2018-11-29T14:02:31.004Z,49.26
2018-11-29T14:05:22.195Z,51.30
2018-11-29T14:08:13.243Z,52.08
2018-11-29T14:11:02.047Z,52.89
2018-11-29T14:13:49.575Z,53.46
2018-11-29T14:16:38.500Z,53.84
2018-11-29T14:19:26.504Z,54.22
2018-11-29T14:22:13.815Z,54.57
2018-11-29T14:25:03.144Z,54.92
2018-11-29T14:27:50.751Z,55.22
2018-11-29T14:30:40.612Z,55.24
2018-11-29T14:33:28.374Z,55.82
2018-11-29T14:36:16.887Z,53.69
2018-11-29T14:39:04.653Z,55.46
2018-11-29T14:41:54.739Z,56.45
2018-11-29T14:44:42.360Z,57.07
2018-11-29T14:47:32.626Z,57.36
2018-11-29T14:50:20.608Z,57.68
2018-11-29T14:53:08.186Z,58.03
2018-11-29T14:55:56.226Z,58.26
2018-11-29T14:58:43.978Z,58.33
2018-11-29T15:01:31.451Z,58.31
2018-11-29T15:04:19.465Z,58.43
2018-11-29T15:07:08.664Z,58.44
2018-11-29T15:09:58.206Z,58.57
2018-11-29T15:12:46.081Z,58.63
2018-11-29T15:15:41.588Z,58.71
2018-11-29T15:18:28.931Z,58.94
2018-11-29T15:21:16.279Z,59.01
2018-11-29T15:24:03.567Z,59.11
2018-11-29T15:26:50.851Z,59.20
2018-11-29T15:29:39.634Z,59.30
2018-11-29T15:32:27.057Z,57.40
2018-11-29T15:35:14.393Z,58.45
2018-11-29T15:38:02.206Z,58.75
2018-11-29T15:40:50.231Z,58.98
2018-11-29T15:43:37.688Z,59.07
2018-11-29T15:46:24.847Z,59.13
2018-11-29T15:49:12.137Z,59.29
2018-11-29T15:52:00.406Z,57.32
2018-11-29T15:54:52.101Z,58.39
2018-11-29T15:57:39.186Z,58.94
2018-11-29T16:00:26.733Z,59.14
2018-11-29T16:03:14.317Z,57.11
2018-11-29T16:09:07.612Z,58.30
2018-11-29T16:11:55.006Z,58.45
2018-11-29T16:14:43.504Z,58.75
2018-11-29T16:17:30.037Z,58.88
2018-11-29T16:20:17.733Z,59.01
2018-11-29T16:23:06.599Z,59.16
2018-11-29T16:25:54.685Z,57.17
2018-11-29T16:28:44.072Z,58.06
2018-11-29T16:31:36.487Z,58.46
2018-11-29T16:34:24.137Z,58.85
2018-11-29T16:37:13.087Z,58.88
2018-11-29T16:40:03.817Z,58.90
2018-11-29T16:42:51.435Z,59.02
2018-11-29T16:45:38.893Z,59.06
2018-11-29T16:48:36.521Z,57.33
2018-11-29T16:51:24.124Z,56.16
2018-11-29T16:54:16.656Z,55.69
2018-11-29T16:57:02.178Z,55.21
2018-11-29T16:59:52.153Z,57.09
2018-11-29T17:02:42.071Z,57.86
2018-11-29T17:05:34.327Z,58.55
2018-11-29T17:08:21.760Z,56.94
2018-11-29T17:11:08.983Z,58.35
2018-11-29T17:13:56.694Z,58.96
2018-11-29T17:16:45.617Z,59.45
2018-11-29T17:19:33.103Z,57.76
2018-11-29T17:22:20.485Z,58.96
2018-11-29T17:25:08.208Z,59.37
2018-11-29T17:27:57.509Z,59.49
2018-11-29T17:30:44.535Z,59.53
2018-11-29T17:33:31.959Z,59.69
2018-11-29T17:36:20.329Z,59.75
2018-11-29T17:39:08.226Z,59.86
2018-11-29T17:41:55.781Z,59.96
2018-11-29T17:44:45.841Z,58.01
2018-11-29T17:47:32.913Z,59.19
2018-11-29T17:50:20.825Z,59.72
2018-11-29T17:53:08.357Z,60.20
2018-11-29T17:55:55.626Z,60.38
2018-11-29T17:58:43.388Z,60.51
2018-11-29T18:01:30.802Z,60.66
2018-11-29T18:04:19.026Z,60.63
2018-11-29T18:07:11.447Z,60.91
2018-11-29T18:09:58.740Z,61.33
2018-11-29T18:12:46.002Z,61.59
2018-11-29T18:15:36.909Z,61.82
2018-11-29T18:18:26.050Z,61.87
2018-11-29T18:21:13.699Z,61.94
2018-11-29T18:24:05.220Z,62.04
2018-11-29T18:26:54.232Z,62.30
2018-11-29T18:29:41.306Z,62.49
2018-11-29T18:32:32.641Z,62.85
2018-11-29T18:35:20.069Z,62.94
2018-11-29T18:38:07.484Z,62.96
2018-11-29T18:40:54.901Z,62.91
2018-11-29T18:43:42.191Z,62.97
2018-11-29T18:46:29.729Z,63.04
2018-11-29T18:49:17.070Z,63.04
2018-11-29T18:52:04.288Z,63.08
2018-11-29T18:55:00.279Z,63.02
2018-11-29T18:57:47.897Z,62.86
2018-11-29T19:00:35.231Z,62.85
2018-11-29T19:03:23.119Z,62.86
2018-11-29T19:06:10.650Z,62.91
2018-11-29T19:08:58.351Z,62.91
2018-11-29T19:11:45.931Z,62.87
2018-11-29T19:14:33.676Z,62.78
2018-11-29T19:17:25.044Z,62.53
2018-11-29T19:23:15.698Z,62.47
2018-11-29T19:26:03.342Z,62.35
2018-11-29T19:28:51.320Z,62.19
2018-11-29T19:31:39.059Z,62.29
2018-11-29T19:34:29.788Z,62.26
2018-11-29T19:37:17.960Z,62.55
2018-11-29T19:40:06.488Z,62.71
2018-11-29T19:42:54.525Z,61.07
2018-11-29T19:45:44.833Z,61.89
2018-11-29T19:48:32.826Z,62.21
2018-11-29T19:51:21.387Z,62.29
2018-11-29T19:54:10.409Z,62.28
2018-11-29T19:56:58.768Z,62.36
2018-11-29T20:03:02.447Z,62.41
2018-11-29T20:05:57.057Z,60.56
2018-11-29T20:08:48.144Z,61.35
2018-11-29T20:11:43.433Z,59.69
2018-11-29T20:14:33.115Z,61.16
2018-11-29T20:17:22.363Z,59.72
2018-11-29T20:20:12.822Z,60.97
2018-11-29T20:23:01.268Z,61.50
2018-11-29T20:25:50.094Z,62.00
2018-11-29T20:28:39.029Z,62.11
2018-11-29T20:31:26.292Z,62.41
2018-11-29T20:34:15.437Z,62.50
2018-11-29T20:37:03.106Z,62.56
2018-11-29T20:39:50.674Z,60.60
2018-11-29T20:42:45.073Z,59.50
2018-11-29T20:45:35.510Z,61.22
2018-11-29T20:48:24.393Z,61.84
2018-11-29T20:51:16.011Z,62.18
2018-11-29T20:54:03.752Z,62.36
2018-11-29T20:56:52.036Z,60.63
2018-11-29T20:59:40.421Z,61.43
2018-11-29T21:02:27.815Z,61.74
2018-11-29T21:05:15.080Z,61.59
2018-11-29T21:08:02.601Z,61.81
2018-11-29T21:10:49.858Z,62.04
2018-11-29T21:13:37.637Z,62.31
2018-11-29T21:16:25.323Z,62.54
2018-11-29T21:19:12.865Z,62.42
2018-11-29T21:22:00.245Z,62.55
2018-11-29T21:24:48.476Z,62.88
2018-11-29T21:27:36.331Z,63.11
2018-11-29T21:30:25.626Z,63.06
2018-11-29T21:33:14.266Z,63.46
2018-11-29T21:36:02.314Z,63.03
2018-11-29T21:38:50.748Z,63.26
2018-11-29T21:41:38.667Z,63.15
2018-11-29T21:44:26.646Z,62.40
2018-11-29T21:47:14.287Z,62.48
2018-11-29T21:50:02.311Z,62.47
2018-11-29T21:52:50.231Z,62.40
2018-11-29T21:55:38.881Z,61.54
2018-11-29T21:58:26.021Z,61.00
2018-11-29T22:01:13.140Z,60.36
2018-11-29T22:04:02.018Z,60.35
2018-11-29T22:06:54.003Z,60.76
2018-11-29T22:09:41.494Z,60.51
2018-11-29T22:12:30.087Z,60.38
2018-11-29T22:18:24.184Z,59.46
2018-11-29T22:21:12.357Z,59.08
2018-11-29T22:24:01.683Z,59.27
2018-11-29T22:26:49.385Z,58.76
2018-11-29T22:29:55.227Z,58.75
2018-11-29T22:32:59.370Z,58.00
2018-11-29T22:35:49.006Z,55.87
2018-11-29T22:38:36.348Z,56.38
2018-11-29T22:41:24.093Z,56.70
2018-11-29T22:44:11.668Z,57.41
2018-11-29T22:46:59.292Z,57.67
2018-11-29T22:49:48.306Z,55.93
2018-11-29T22:52:35.827Z,56.85
2018-11-29T22:55:23.087Z,57.09
2018-11-29T22:58:10.523Z,57.43
2018-11-29T23:01:00.626Z,57.80
2018-11-29T23:03:48.178Z,57.86
2018-11-29T23:06:35.416Z,58.15
2018-11-29T23:09:22.823Z,58.35
2018-11-29T23:12:11.057Z,58.73
2018-11-29T23:15:00.257Z,58.92
2018-11-29T23:17:47.705Z,57.28
2018-11-29T23:20:40.895Z,58.19
2018-11-29T23:23:42.640Z,58.45
2018-11-29T23:26:34.131Z,58.82
2018-11-29T23:29:35.242Z,58.91
2018-11-29T23:32:27.577Z,58.93
2018-11-29T23:35:21.180Z,59.00
2018-11-29T23:38:08.769Z,58.51
2018-11-29T23:40:56.632Z,58.84
2018-11-29T23:43:43.918Z,58.88
2018-11-29T23:46:42.625Z,58.71
2018-11-29T23:49:32.541Z,56.56
2018-11-29T23:52:25.979Z,57.39
2018-11-29T23:55:14.474Z,57.83
2018-11-29T23:58:01.917Z,57.99
